Kirkenes Airport, Hoybuktmoen


Codes: ENKR/KKN
Name: Kirkenes Airport, Hoybuktmoen
City: Kirkenes
Country: Norway
Elevation: 283 ft.
Wikipedia:

Photos at Kirkenes Airport, Hoybuktmoen


   Photos courtesy of SpottingLog. You can add your own sightings and photos by signing up for a free trial today.



No photos found.

Weather at Kirkenes Airport, Hoybuktmoen


Time (UTC)DescriptionTempratureWindCloud coverageVisibilityPressureHumidity
23-May-2024 21:00Scattered Clouds13°C7 mph, W33%10000m1011hPa59%
24-May-2024 00:00Broken Clouds10°C11 mph, NW65%10000m1012hPa75%
24-May-2024 03:00Overcast Clouds7°C22 mph, NW99%10000m1015hPa75%
24-May-2024 06:00Overcast Clouds7°C25 mph, NW93%10000m1016hPa61%
24-May-2024 09:00Few Clouds9°C27 mph, NW16%10000m1017hPa50%
24-May-2024 12:00Scattered Clouds7°C31 mph, NW41%10000m1018hPa56%
24-May-2024 15:00Overcast Clouds6°C36 mph, NW100%10000m1018hPa56%
24-May-2024 18:00Broken Clouds4°C31 mph, NW55%10000m1020hPa63%
24-May-2024 21:00Few Clouds3°C27 mph, NW11%10000m1022hPa71%
25-May-2024 00:00Clear Sky2°C22 mph, NW10%10000m1022hPa74%
25-May-2024 03:00Broken Clouds3°C22 mph, NW54%10000m1024hPa72%
25-May-2024 06:00Broken Clouds3°C20 mph, NW62%10000m1025hPa81%
25-May-2024 09:00Light Rain6°C25 mph, NW94%10000m1026hPa57%
25-May-2024 12:00Overcast Clouds6°C22 mph, NW96%10000m1028hPa55%
25-May-2024 15:00Overcast Clouds6°C20 mph, NW100%10000m1028hPa58%
25-May-2024 18:00Overcast Clouds5°C16 mph, NW100%10000m1029hPa63%
25-May-2024 21:00Overcast Clouds4°C9 mph, W100%10000m1028hPa78%
26-May-2024 00:00Overcast Clouds5°C9 mph, SW100%10000m1028hPa73%
26-May-2024 03:00Overcast Clouds6°C11 mph, SW100%10000m1026hPa62%
26-May-2024 06:00Overcast Clouds8°C13 mph, W100%10000m1024hPa58%
26-May-2024 09:00Overcast Clouds9°C9 mph, W96%10000m1024hPa57%
26-May-2024 12:00Overcast Clouds12°C11 mph, NW94%10000m1023hPa48%
26-May-2024 15:00Clear Sky11°C16 mph, N3%10000m1022hPa52%
26-May-2024 18:00Clear Sky9°C11 mph, N6%10000m1022hPa72%
26-May-2024 21:00Broken Clouds7°C2 mph, W63%10000m1022hPa82%
27-May-2024 00:00Broken Clouds7°C4 mph, SW52%10000m1022hPa83%
27-May-2024 03:00Few Clouds8°C2 mph, N11%10000m1021hPa76%
27-May-2024 06:00Scattered Clouds10°C4 mph, NE32%10000m1021hPa69%
27-May-2024 09:00Clear Sky10°C7 mph, NE9%10000m1020hPa68%
27-May-2024 12:00Clear Sky11°C9 mph, NE10%10000m1019hPa68%
27-May-2024 15:00Few Clouds10°C9 mph, NE19%5483m1018hPa73%
27-May-2024 18:00Scattered Clouds8°C7 mph, NE49%6160m1017hPa84%
27-May-2024 21:00Overcast Clouds7°C4 mph, NE100%3932m1015hPa89%
28-May-2024 00:00Light Rain6°C7 mph, N92%10000m1014hPa94%
28-May-2024 03:00Light Rain5°C9 mph, N100%10000m1014hPa91%
28-May-2024 06:00Light Rain5°C7 mph, N100%5410m1014hPa92%
28-May-2024 09:00Overcast Clouds8°C7 mph, N100%5217m1015hPa83%
28-May-2024 12:00Overcast Clouds9°C7 mph, N98%5125m1015hPa80%
28-May-2024 15:00Overcast Clouds9°C4 mph, N98%5137m1015hPa79%
28-May-2024 18:00Broken Clouds8°C7 mph, NE77%5120m1016hPa85%